Time;durP1;ratioP1;P1;durP2;ratioP2;P2;SDS_P1;SDS_P2;PMS_P1;PMS_P2;Temp;Humidity;BMP_temperature;BMP_pressure;BME280_temperature;BME280_humidity;BME280_pressure;Samples;Min_cycle;Max_cycle;Signal;HPM_P1;HPM_P2
2022/06/13 00:01:00;;;;;;;13.70;5.13;;;;;;;13.66;80.51;101959.34;5094950;28;20446;-59
2022/06/13 00:03:26;;;;;;;11.07;4.97;;;;;;;13.69;80.87;101958.41;5094669;28;20032;-60
2022/06/13 00:05:51;;;;;;;11.82;4.63;;;;;;;13.65;81.30;101956.72;5094787;28;20140;-58
2022/06/13 00:08:16;;;;;;;13.07;4.75;;;;;;;13.61;81.55;101949.72;5094678;28;20028;-58
2022/06/13 00:10:42;;;;;;;11.93;4.97;;;;;;;13.63;81.64;101955.84;5095519;28;20028;-59
2022/06/13 00:13:07;;;;;;;8.40;4.60;;;;;;;13.56;82.05;101944.50;5098254;28;20330;-59
2022/06/13 00:15:33;;;;;;;11.40;4.78;;;;;;;13.49;82.29;101950.72;5098313;28;20441;-58
2022/06/13 00:17:58;;;;;;;10.88;4.85;;;;;;;13.52;82.36;101951.53;5098418;28;20386;-59
2022/06/13 00:20:23;;;;;;;12.00;5.13;;;;;;;13.45;82.71;101943.72;5098152;28;20036;-60
2022/06/13 00:22:49;;;;;;;10.52;4.97;;;;;;;13.50;82.72;101942.81;5098544;28;20059;-58
2022/06/13 00:25:16;;;;;;;11.50;5.43;;;;;;;13.47;82.73;101942.84;5098303;28;20035;-59
2022/06/13 00:27:42;;;;;;;12.40;5.13;;;;;;;13.43;82.61;101941.09;5098116;28;20044;-59
2022/06/13 00:30:09;;;;;;;9.30;4.95;;;;;;;13.42;82.08;101947.25;5097992;28;20054;-59
2022/06/13 00:32:34;;;;;;;9.68;4.78;;;;;;;13.38;83.34;101948.16;5097964;28;20197;-58
2022/06/13 00:34:59;;;;;;;12.00;5.13;;;;;;;13.43;82.99;101941.09;5098300;28;20067;-59
2022/06/13 00:37:25;;;;;;;7.85;4.93;;;;;;;13.47;82.50;101940.22;5098042;28;20363;-59
2022/06/13 00:39:50;;;;;;;10.98;5.10;;;;;;;13.46;82.25;101940.22;5097831;28;20024;-59
2022/06/13 00:42:18;;;;;;;12.35;5.05;;;;;;;13.44;81.90;101934.09;5098465;28;20094;-60
2022/06/13 00:45:02;;;;;;;13.27;5.50;;;;;;;13.50;81.81;101932.31;5097714;28;20031;-58
2022/06/13 00:47:27;;;;;;;11.40;5.32;;;;;;;13.48;82.14;101938.44;5097889;28;20378;-58
2022/06/13 00:49:54;;;;;;;10.82;5.13;;;;;;;13.51;83.00;101935.75;5097653;28;20046;-58
2022/06/13 00:52:25;;;;;;;12.23;5.85;;;;;;;13.58;83.06;101927.81;5097764;28;20036;-59
2022/06/13 00:54:52;;;;;;;9.20;5.47;;;;;;;13.65;82.65;101927.78;5098040;28;20042;-57
2022/06/13 00:57:21;;;;;;;12.15;5.43;;;;;;;13.69;81.92;101929.47;5097440;28;20031;-60
2022/06/13 00:59:49;;;;;;;12.35;5.20;;;;;;;13.75;81.48;101932.06;5097412;28;20047;-60
2022/06/13 01:02:15;;;;;;;13.23;5.70;;;;;;;13.83;81.30;101927.63;5097761;28;20119;-59
2022/06/13 01:04:40;;;;;;;11.50;5.45;;;;;;;13.88;81.75;101936.31;5097452;28;20030;-59
2022/06/13 01:07:08;;;;;;;17.02;5.63;;;;;;;13.92;82.48;101933.66;5097208;28;20447;-59
2022/06/13 01:12:18;;;;;;;16.65;5.88;;;;;;;14.00;80.40;101927.47;5097512;28;20047;-59
2022/06/13 01:15:24;;;;;;;16.30;5.72;;;;;;;14.06;80.38;101924.75;5097420;28;20035;-59
2022/06/13 01:18:10;;;;;;;16.38;5.85;;;;;;;14.06;80.20;101928.25;5097258;28;20153;-59
2022/06/13 01:20:45;;;;;;;12.55;5.80;;;;;;;14.13;81.57;101935.19;5096876;28;20435;-59
2022/06/13 01:23:27;;;;;;;18.08;6.30;;;;;;;14.15;81.53;101927.28;5096340;28;20039;-59
2022/06/13 01:26:18;;;;;;;16.40;5.82;;;;;;;14.15;82.43;101932.56;5097119;28;20035;-59
2022/06/13 01:29:08;;;;;;;17.83;6.38;;;;;;;14.18;82.88;101928.13;5096778;28;20039;-58
2022/06/13 01:31:44;;;;;;;13.65;6.30;;;;;;;14.22;83.38;101921.06;5096911;28;20032;-57
2022/06/13 01:34:55;;;;;;;18.60;6.95;;;;;;;14.22;82.90;101924.56;5096717;28;20036;-59
2022/06/13 01:37:47;;;;;;;17.52;6.30;;;;;;;14.17;82.79;101915.88;5096827;28;20040;-59
2022/06/13 01:40:21;;;;;;;21.20;6.65;;;;;;;14.21;82.86;101914.03;5096634;28;20042;-58
2022/06/13 01:43:09;;;;;;;18.60;6.22;;;;;;;14.12;83.94;101906.25;5096534;28;20028;-58
2022/06/13 01:46:17;;;;;;;16.85;6.50;;;;;;;14.18;82.82;101906.19;5096522;28;20024;-58
2022/06/13 01:49:11;;;;;;;17.38;6.20;;;;;;;14.17;83.16;101899.19;4994452;28;20038;-59
2022/06/13 01:51:48;;;;;;;16.25;6.90;;;;;;;14.13;82.82;101906.25;5088268;28;20043;-59
2022/06/13 01:54:20;;;;;;;17.05;6.28;;;;;;;14.16;84.08;101905.34;5096601;28;20097;-59
2022/06/13 01:57:04;;;;;;;14.95;5.97;;;;;;;14.19;82.71;101911.44;5096368;28;20117;-59
2022/06/13 01:59:32;;;;;;;17.02;6.38;;;;;;;14.20;83.77;101907.91;5096284;28;20024;-60
2022/06/13 02:02:15;;;;;;;17.15;6.30;;;;;;;14.25;82.78;101910.50;5096181;28;20039;-60
2022/06/13 02:04:59;;;;;;;16.13;5.93;;;;;;;14.24;83.18;101906.97;5096942;28;20434;-59
2022/06/13 02:07:29;;;;;;;16.17;6.50;;;;;;;14.22;82.11;101913.16;5096030;28;20170;-59
2022/06/13 02:10:04;;;;;;;13.82;6.40;;;;;;;14.24;82.50;101909.63;5095616;28;20472;-59
2022/06/13 02:12:34;;;;;;;19.92;7.35;;;;;;;14.18;81.52;101904.44;5095985;28;20046;-58
2022/06/13 02:15:07;;;;;;;13.95;5.78;;;;;;;14.21;81.55;101911.41;5095581;28;20442;-59
2022/06/13 02:17:39;;;;;;;14.60;6.40;;;;;;;14.26;81.88;101915.75;5095974;28;20032;-58
2022/06/13 02:20:19;;;;;;;14.13;5.97;;;;;;;14.26;81.42;101918.38;5096110;28;20426;-59
2022/06/13 02:22:54;;;;;;;15.95;6.22;;;;;;;14.29;81.19;101920.97;5095840;28;20032;-58
2022/06/13 02:25:28;;;;;;;13.30;6.72;;;;;;;14.35;81.71;101917.41;5095847;28;20054;-58
2022/06/13 02:28:04;;;;;;;16.35;6.78;;;;;;;14.28;80.95;101921.00;5095638;28;20055;-59
2022/06/13 02:30:36;;;;;;;15.77;6.50;;;;;;;14.37;81.60;101914.75;5095899;28;20032;-59
2022/06/13 02:33:13;;;;;;;18.92;7.05;;;;;;;14.32;80.86;101911.31;5095356;28;20058;-58
2022/06/13 02:35:58;;;;;;;15.93;6.88;;;;;;;14.30;80.86;101913.94;5095706;28;20050;-59
2022/06/13 02:39:01;;;;;;;13.93;6.80;;;;;;;14.32;80.66;101909.53;5095813;28;20123;-57
2022/06/13 02:41:36;;;;;;;14.80;7.18;;;;;;;14.24;80.64;101914.88;5095668;28;20441;-59
2022/06/13 02:44:12;;;;;;;14.07;7.25;;;;;;;14.28;80.71;101903.44;5095528;28;20056;-58
2022/06/13 02:46:45;;;;;;;16.42;7.43;;;;;;;14.29;81.21;101899.03;5095574;28;20128;-60
2022/06/13 02:49:20;;;;;;;17.63;7.00;;;;;;;14.27;81.13;101890.28;5095290;28;20032;-58
2022/06/13 02:51:56;;;;;;;22.05;8.13;;;;;;;14.19;81.63;101900.06;5095398;28;20028;-60
2022/06/13 02:54:46;;;;;;;16.02;8.15;;;;;;;14.13;81.27;101908.00;5095595;28;20060;-60
2022/06/13 02:57:48;;;;;;;16.00;7.80;;;;;;;14.12;81.59;101907.13;5095511;28;20377;-59
2022/06/13 03:00:20;;;;;;;18.15;7.82;;;;;;;14.01;81.91;101903.75;5095205;28;20454;-59
2022/06/13 03:03:07;;;;;;;14.80;7.97;;;;;;;13.97;82.66;101911.69;5095316;28;20115;-59
2022/06/13 03:06:03;;;;;;;15.20;8.30;;;;;;;13.99;82.07;101900.25;5095275;28;20324;-59
2022/06/13 03:08:37;;;;;;;18.42;7.90;;;;;;;13.96;82.75;101897.66;5095410;28;20020;-58
2022/06/13 03:11:38;;;;;;;19.00;8.20;;;;;;;13.97;82.26;101899.41;5094976;28;20422;-58
2022/06/13 03:14:13;;;;;;;16.92;8.32;;;;;;;13.76;83.27;101875.94;5095427;28;20067;-58
2022/06/13 03:16:47;;;;;;;15.15;7.68;;;;;;;13.88;83.47;101910.00;5095130;28;20385;-59
2022/06/13 03:19:21;;;;;;;15.23;7.72;;;;;;;13.89;83.46;101911.75;5094913;28;20516;-58
2022/06/13 03:21:49;;;;;;;19.55;8.27;;;;;;;13.84;83.79;101910.94;5095056;28;20042;-59
2022/06/13 03:24:28;;;;;;;19.33;8.40;;;;;;;13.77;84.24;101912.75;5095105;28;20042;-59
2022/06/13 03:27:03;;;;;;;22.38;8.02;;;;;;;13.69;85.03;101917.19;5095044;28;20071;-59
2022/06/13 03:29:34;;;;;;;17.00;8.13;;;;;;;13.72;84.97;101913.69;5094904;28;20028;-60
2022/06/13 03:32:10;;;;;;;16.35;8.35;;;;;;;13.69;84.99;101921.59;5095011;28;20032;-59
2022/06/13 03:34:43;;;;;;;17.45;7.78;;;;;;;13.66;85.46;101911.13;5094859;28;20036;-59
2022/06/13 03:37:22;;;;;;;15.88;8.13;;;;;;;13.66;84.92;101911.13;5095204;28;20466;-59
2022/06/13 03:39:54;;;;;;;16.45;7.75;;;;;;;13.52;86.01;101909.47;5094826;28;20024;-59
2022/06/13 03:42:32;;;;;;;20.70;8.07;;;;;;;13.54;86.37;101917.34;5094903;28;20028;-59
2022/06/13 03:45:16;;;;;;;19.63;8.30;;;;;;;13.46;88.12;101921.81;5094970;28;20082;-59
2022/06/13 03:47:49;;;;;;;19.13;8.52;;;;;;;13.43;87.28;101930.59;5098657;28;20042;-59
2022/06/13 03:50:29;;;;;;;18.80;8.32;;;;;;;13.28;87.80;101908.81;5098791;28;20334;-58
2022/06/13 03:53:01;;;;;;;15.48;8.05;;;;;;;13.37;87.59;101928.00;5098661;28;20028;-60
2022/06/13 03:55:52;;;;;;;17.45;8.15;;;;;;;13.31;88.32;101928.06;5099140;28;20169;-59
2022/06/13 03:58:27;;;;;;;18.50;8.65;;;;;;;13.35;88.12;101932.38;5098310;28;20043;-58
2022/06/13 04:01:05;;;;;;;20.08;9.20;;;;;;;13.30;88.33;101934.19;5098780;28;20032;-57
2022/06/13 04:03:31;;;;;;;19.17;8.85;;;;;;;13.26;88.88;101932.47;5098485;28;20081;-59
2022/06/13 04:05:58;;;;;;;20.23;8.50;;;;;;;13.27;88.88;101941.22;5098594;28;20024;-60
2022/06/13 04:08:26;;;;;;;16.27;8.48;;;;;;;13.33;89.13;101936.81;5098567;28;20434;-60
2022/06/13 04:10:59;;;;;;;17.92;8.60;;;;;;;13.25;89.13;101935.97;5097871;28;20470;-58
2022/06/13 04:13:49;;;;;;;18.90;8.88;;;;;;;13.27;88.87;101939.47;5098310;28;20051;-59
2022/06/13 04:16:25;;;;;;;18.30;8.85;;;;;;;13.26;88.99;101945.63;5098499;28;20020;-58
2022/06/13 04:19:06;;;;;;;18.08;7.80;;;;;;;13.20;89.61;101948.28;5098235;28;20409;-59
2022/06/13 04:21:47;;;;;;;18.03;9.13;;;;;;;13.18;90.22;101940.38;5098209;28;20072;-58
2022/06/13 04:24:34;;;;;;;19.05;9.32;;;;;;;13.16;90.26;101943.94;5098285;28;20307;-59
2022/06/13 04:27:16;;;;;;;20.55;9.55;;;;;;;13.20;90.51;101946.50;5098324;28;20050;-58
2022/06/13 04:29:57;;;;;;;19.65;9.13;;;;;;;13.24;90.08;101955.25;5098007;28;20032;-58
2022/06/13 04:32:29;;;;;;;15.75;8.82;;;;;;;13.22;90.43;101954.41;5097864;28;20035;-60
2022/06/13 04:34:57;;;;;;;14.93;9.43;;;;;;;13.26;90.35;101957.88;5098389;28;20034;-59
2022/06/13 04:37:23;;;;;;;21.63;9.98;;;;;;;13.27;90.99;101963.13;5098109;28;20463;-60
2022/06/13 04:39:52;;;;;;;20.40;8.82;;;;;;;13.40;90.56;101956.91;5097754;28;20054;-59
2022/06/13 04:42:21;;;;;;;19.27;9.75;;;;;;;13.48;90.18;101959.50;5097702;28;20032;-59
2022/06/13 04:44:47;;;;;;;19.70;9.57;;;;;;;13.58;90.08;101961.16;5097846;28;20051;-59
2022/06/13 04:47:16;;;;;;;16.80;9.27;;;;;;;13.65;89.99;101967.25;5098284;28;20046;-59
2022/06/13 04:49:47;;;;;;;20.00;9.20;;;;;;;13.74;89.87;101951.38;5097621;28;20119;-59
2022/06/13 04:52:16;;;;;;;17.60;9.07;;;;;;;13.84;89.55;101966.19;5098384;28;20035;-58
2022/06/13 04:54:47;;;;;;;21.40;9.52;;;;;;;13.89;89.35;101962.63;5097465;28;20032;-59
2022/06/13 04:57:15;;;;;;;21.52;9.80;;;;;;;13.94;89.10;101966.09;5097370;28;20028;-59
2022/06/13 04:59:42;;;;;;;24.98;9.68;;;;;;;14.02;88.84;101973.94;5097375;28;20027;-58
2022/06/13 05:02:19;;;;;;;23.50;9.82;;;;;;;14.05;88.94;101967.75;5097464;28;20320;-60
2022/06/13 05:04:46;;;;;;;19.75;10.13;;;;;;;14.16;88.97;101966.75;5097255;28;20442;-59
2022/06/13 05:07:15;;;;;;;20.05;9.93;;;;;;;14.25;89.27;101977.19;5100242;28;20324;-59
2022/06/13 05:09:57;;;;;;;27.55;10.90;;;;;;;14.36;88.53;101976.22;5099738;28;20320;-59
2022/06/13 05:12:28;;;;;;;;;;;;;;;14.49;87.17;101980.50;5097796;28;20050;-59
2022/06/13 05:15:01;;;;;;;21.55;8.98;;;;;;;14.57;87.40;101976.84;5097217;28;19916;-56
2022/06/13 05:17:51;;;;;;;16.85;9.48;;;;;;;14.68;87.32;101979.38;5097170;28;20351;-57
2022/06/13 05:20:54;;;;;;;23.58;9.90;;;;;;;14.69;87.46;101980.25;5096892;28;20036;-57
2022/06/13 05:23:25;;;;;;;20.42;9.80;;;;;;;14.72;87.83;101982.84;5096980;28;20054;-57
2022/06/13 05:25:54;;;;;;;18.17;9.70;;;;;;;14.77;88.07;101983.66;5096966;28;20036;-58
2022/06/13 05:28:22;;;;;;;21.08;10.18;;;;;;;14.83;88.02;101984.47;5097114;28;20040;-58
2022/06/13 05:30:54;;;;;;;22.83;10.18;;;;;;;14.90;87.76;101990.50;5097046;28;20043;-59
2022/06/13 05:33:24;;;;;;;23.08;10.13;;;;;;;15.05;87.53;101984.19;5097341;28;20113;-58
2022/06/13 05:35:53;;;;;;;22.30;10.40;;;;;;;15.09;87.07;101988.50;5096721;28;20062;-57
2022/06/13 05:38:28;;;;;;;20.17;10.40;;;;;;;15.19;87.33;101998.03;5096733;28;20046;-57
2022/06/13 05:40:54;;;;;;;20.50;10.13;;;;;;;15.31;86.12;101995.22;5114039;28;20027;-55
2022/06/13 05:43:19;;;;;;;21.17;10.00;;;;;;;15.40;86.15;102005.66;5117426;28;20043;-57
2022/06/13 05:45:45;;;;;;;19.08;9.57;;;;;;;15.46;85.43;101999.38;5116969;28;20047;-57
2022/06/13 05:48:14;;;;;;;22.90;9.60;;;;;;;15.50;85.21;102001.97;5116481;28;20441;-57
2022/06/13 05:50:40;;;;;;;20.10;9.27;;;;;;;15.58;84.50;102000.13;5116724;28;20027;-56
2022/06/13 05:53:05;;;;;;;20.52;8.95;;;;;;;15.65;84.31;102009.69;5109560;28;20038;-57
2022/06/13 05:55:31;;;;;;;25.05;8.90;;;;;;;15.68;83.42;102013.16;5096595;28;20335;-56
2022/06/13 05:57:56;;;;;;;20.15;8.90;;;;;;;15.69;82.93;102007.00;5096188;28;20119;-56
2022/06/13 06:00:26;;;;;;;21.60;8.27;;;;;;;15.70;82.65;102014.88;5096132;28;20028;-57
2022/06/13 06:02:51;;;;;;;14.82;8.15;;;;;;;15.75;82.84;102018.34;5096158;28;20416;-57
2022/06/13 06:05:16;;;;;;;18.00;8.27;;;;;;;15.84;81.95;102023.44;5096401;28;20028;-57
2022/06/13 06:07:42;;;;;;;17.88;7.75;;;;;;;15.91;81.89;102026.88;5095769;28;20036;-57
2022/06/13 06:10:13;;;;;;;18.70;7.93;;;;;;;15.93;81.42;102027.72;5095785;28;20040;-57
2022/06/13 06:12:39;;;;;;;;;;;;;;;16.01;81.98;102026.69;5096311;28;20439;-57
2022/06/13 06:15:05;;;;;;;20.97;8.47;;;;;;;15.88;82.77;102026.91;5096011;28;19912;-58
2022/06/13 06:17:30;;;;;;;18.05;7.68;;;;;;;15.95;82.02;102036.47;5095969;28;20024;-57
2022/06/13 06:19:55;;;;;;;21.08;8.68;;;;;;;16.11;83.06;102037.94;5095659;28;20115;-58
2022/06/13 06:22:20;;;;;;;19.58;8.18;;;;;;;16.21;81.73;102036.03;5095724;28;20362;-59
2022/06/13 06:24:46;;;;;;;23.27;8.15;;;;;;;16.30;80.48;102043.78;5095869;28;20032;-57
2022/06/13 06:27:14;;;;;;;22.65;7.97;;;;;;;16.43;81.27;102036.53;5095442;28;20071;-57
2022/06/13 06:29:40;;;;;;;14.13;6.70;;;;;;;16.58;78.72;102041.53;5095872;28;20035;-58
2022/06/13 06:32:05;;;;;;;16.02;7.28;;;;;;;16.68;79.06;102040.47;5095837;28;20032;-57
2022/06/13 06:34:31;;;;;;;15.38;6.68;;;;;;;16.61;77.85;102039.69;5095547;28;20059;-58
2022/06/13 06:36:56;;;;;;;15.25;6.53;;;;;;;16.62;77.27;102046.69;5095443;28;20107;-58
2022/06/13 06:39:21;;;;;;;13.88;6.03;;;;;;;16.60;77.43;102045.00;5095591;28;20482;-58
2022/06/13 06:41:47;;;;;;;12.48;4.70;;;;;;;16.60;75.11;102055.56;5095566;28;20024;-57
2022/06/13 06:44:12;;;;;;;11.82;4.38;;;;;;;16.50;74.07;102054.00;5095531;28;20028;-58
2022/06/13 06:46:37;;;;;;;12.32;4.03;;;;;;;16.34;74.02;102059.56;5095735;28;20062;-57
2022/06/13 06:49:02;;;;;;;10.85;3.85;;;;;;;16.27;73.92;102068.50;5095098;28;20039;-58
2022/06/13 06:51:29;;;;;;;12.18;3.97;;;;;;;16.43;74.10;102066.47;5094980;28;20040;-59
2022/06/13 07:02:07;;;;;;;8.68;3.33;;;;;;;17.02;69.69;102075.91;5109393;28;20034;-57
2022/06/13 07:04:32;;;;;;;12.57;3.58;;;;;;;16.96;68.55;102062.81;5115527;28;20130;-59
2022/06/13 07:06:58;;;;;;;12.57;3.03;;;;;;;16.78;67.55;102073.75;5115622;28;20024;-58
2022/06/13 07:09:23;;;;;;;11.50;3.40;;;;;;;16.53;67.75;102072.44;5115163;28;20386;-58
2022/06/13 07:11:54;;;;;;;7.93;2.65;;;;;;;16.46;69.42;102076.06;5115296;28;20457;-58
2022/06/13 07:14:22;;;;;;;7.32;2.83;;;;;;;16.41;69.44;102072.66;5115066;28;20122;-59
2022/06/13 07:16:47;;;;;;;10.50;2.92;;;;;;;16.36;69.17;102064.81;5116042;28;20389;-58
2022/06/13 07:19:13;;;;;;;7.60;2.63;;;;;;;16.33;69.03;102068.38;5115258;28;20103;-57
2022/06/13 07:21:38;;;;;;;10.38;2.92;;;;;;;16.27;68.68;102075.56;5118303;28;20110;-58
2022/06/13 07:24:04;;;;;;;8.55;3.00;;;;;;;16.27;68.34;102079.06;5119596;28;20335;-58
2022/06/13 07:26:31;;;;;;;9.30;3.17;;;;;;;16.24;68.44;102076.47;5119334;28;20027;-60
2022/06/13 07:28:56;;;;;;;10.23;3.10;;;;;;;16.26;68.09;102081.75;5119181;28;20105;-58
2022/06/13 07:31:37;;;;;;;10.88;2.70;;;;;;;16.44;68.44;102077.91;5119429;28;20362;-57
2022/06/13 07:34:02;;;;;;;8.60;2.80;;;;;;;16.73;68.55;102080.03;5119481;28;20028;-58
2022/06/13 07:36:28;;;;;;;8.40;2.85;;;;;;;17.01;66.86;102082.09;5119355;28;20020;-57
2022/06/13 07:38:53;;;;;;;7.70;2.70;;;;;;;17.28;67.17;102078.03;5119516;28;20043;-58
2022/06/13 07:41:22;;;;;;;9.35;2.60;;;;;;;17.49;65.29;102081.94;5118666;28;20053;-59
2022/06/13 07:43:50;;;;;;;8.50;2.72;;;;;;;17.45;62.96;102080.28;5119820;28;20361;-58
2022/06/13 07:46:15;;;;;;;9.60;3.00;;;;;;;17.42;63.94;102085.66;5119193;28;20394;-57
2022/06/13 07:48:41;;;;;;;6.93;2.50;;;;;;;17.38;62.95;102091.91;5119140;28;20122;-59
2022/06/13 07:51:07;;;;;;;9.85;2.72;;;;;;;17.38;64.56;102087.47;5119072;28;20028;-58
2022/06/13 07:53:33;;;;;;;7.68;2.45;;;;;;;17.32;63.37;102092.03;5118914;28;20434;-57
2022/06/13 07:55:59;;;;;;;9.70;2.70;;;;;;;17.25;64.54;102093.06;5118731;28;20028;-58
2022/06/13 07:58:33;;;;;;;9.82;2.38;;;;;;;17.20;64.22;102092.28;5118954;28;20502;-58
2022/06/13 08:00:58;;;;;;;8.65;3.00;;;;;;;17.19;65.87;102101.13;5118498;28;20089;-58
2022/06/13 08:03:28;;;;;;;8.55;2.45;;;;;;;17.16;65.10;102104.72;5119037;28;20035;-56
2022/06/13 08:05:53;;;;;;;7.30;2.70;;;;;;;17.15;64.63;102099.44;5118764;28;20445;-59
2022/06/13 08:08:19;;;;;;;7.97;2.45;;;;;;;17.17;65.38;102111.75;5118633;28;20038;-57
2022/06/13 08:10:46;;;;;;;10.15;2.58;;;;;;;17.17;64.22;102113.50;5118559;28;20028;-58
2022/06/13 08:13:13;;;;;;;8.77;2.80;;;;;;;17.31;64.74;102117.66;5118432;28;20059;-59
2022/06/13 08:15:39;;;;;;;7.00;3.05;;;;;;;17.57;64.06;102125.00;5118684;28;20063;-59
2022/06/13 08:18:04;;;;;;;8.05;3.03;;;;;;;17.76;62.28;102128.16;5118647;28;20063;-59
2022/06/13 08:20:29;;;;;;;6.65;2.67;;;;;;;17.78;61.84;102123.69;5118862;28;20092;-58
2022/06/13 08:22:58;;;;;;;10.50;2.55;;;;;;;17.92;61.72;102121.59;5118403;28;20027;-57
2022/06/13 08:25:28;;;;;;;14.07;2.90;;;;;;;18.24;61.49;102122.59;5118447;28;20027;-58
2022/06/13 08:27:55;;;;;;;10.98;3.53;;;;;;;18.39;59.47;102122.19;5118401;28;20051;-59
2022/06/13 08:30:21;;;;;;;6.82;2.67;;;;;;;18.32;58.18;102126.81;5118608;28;20039;-58
2022/06/13 08:32:46;;;;;;;11.90;2.63;;;;;;;18.23;58.62;102121.72;5118066;28;20024;-59
2022/06/13 08:35:14;;;;;;;6.97;2.67;;;;;;;18.01;59.74;102126.66;5118563;28;20027;-59
2022/06/13 08:37:40;;;;;;;10.23;3.05;;;;;;;17.81;61.19;102138.66;5118135;28;20031;-58
2022/06/13 08:40:07;;;;;;;7.85;2.50;;;;;;;17.65;60.59;102140.78;5117918;28;20028;-59
2022/06/13 08:42:43;;;;;;;6.40;2.10;;;;;;;17.46;61.24;102147.34;5118044;28;20457;-58
2022/06/13 08:45:25;;;;;;;6.35;2.10;;;;;;;17.36;62.88;102136.91;5118252;28;20059;-60
2022/06/13 08:48:08;;;;;;;6.97;2.35;;;;;;;17.39;62.99;102143.94;5118210;28;20397;-59
2022/06/13 08:50:42;;;;;;;5.90;2.50;;;;;;;17.47;61.94;102146.44;5118323;28;20052;-58
2022/06/13 08:53:28;;;;;;;7.35;2.47;;;;;;;17.82;61.77;102138.63;5118054;28;20024;-59
2022/06/13 08:56:02;;;;;;;9.70;2.53;;;;;;;18.07;59.21;102120.34;5118036;28;20472;-59
2022/06/13 08:58:44;;;;;;;10.20;2.80;;;;;;;18.66;57.61;102136.56;5117826;28;20020;-58
2022/06/13 09:01:12;;;;;;;;;;;;;;;19.27;58.33;102137.53;5118338;28;20434;-58
2022/06/13 09:03:51;;;;;;;8.35;3.50;;;;;;;19.58;55.80;102135.72;5117765;28;20359;-59
2022/06/13 09:06:24;;;;;;;9.27;3.00;;;;;;;19.85;55.02;102146.44;5117892;28;20027;-62
2022/06/13 09:08:57;;;;;;;6.35;2.20;;;;;;;20.57;52.84;102145.88;5117648;28;20442;-60
2022/06/13 09:11:38;;;;;;;6.88;2.30;;;;;;;20.78;51.02;102136.28;5117450;28;20047;-58
2022/06/13 09:14:35;;;;;;;7.57;2.15;;;;;;;20.43;51.55;102153.44;5117538;28;20074;-59
2022/06/13 09:17:41;;;;;;;5.70;2.35;;;;;;;19.75;52.86;102156.47;5107382;28;20051;-58
2022/06/13 09:20:22;;;;;;;4.90;2.00;;;;;;;19.26;53.72;102157.00;5111968;28;20400;-58
2022/06/13 09:22:58;;;;;;;5.80;1.47;;;;;;;19.04;53.35;102165.59;5099762;28;20032;-59
2022/06/13 09:25:46;;;;;;;4.47;1.30;;;;;;;19.62;53.11;102166.59;5117152;28;20031;-60
2022/06/13 09:28:18;;;;;;;4.68;1.75;;;;;;;20.59;50.65;102162.66;5117265;28;20113;-62
2022/06/13 09:30:54;;;;;;;6.00;2.85;;;;;;;20.95;50.07;102160.50;5117224;28;20031;-58
2022/06/13 09:33:29;;;;;;;8.43;3.78;;;;;;;22.29;48.67;102159.81;5117083;28;20040;-57
2022/06/13 09:36:03;;;;;;;9.65;4.38;;;;;;;22.60;46.41;102156.72;5117103;28;20419;-58
2022/06/13 09:38:34;;;;;;;8.90;4.97;;;;;;;21.47;47.22;102162.13;5116674;28;20446;-58
2022/06/13 09:41:17;;;;;;;7.55;3.00;;;;;;;20.72;51.35;102174.59;5116791;28;20439;-60
2022/06/13 09:43:57;;;;;;;6.05;1.85;;;;;;;20.09;52.18;102180.19;5116196;28;20039;-60
2022/06/13 09:46:51;;;;;;;7.53;2.45;;;;;;;19.72;53.92;102180.50;5117020;28;20035;-58
2022/06/13 09:49:36;;;;;;;7.65;2.97;;;;;;;19.43;54.48;102195.44;5079650;28;20039;-59
2022/06/13 09:52:21;;;;;;;7.28;1.90;;;;;;;19.37;54.21;102197.41;5116846;28;20034;-58
2022/06/13 09:54:56;;;;;;;6.25;1.60;;;;;;;19.31;54.20;102201.09;5116910;28;20034;-59
2022/06/13 09:57:41;;;;;;;4.85;1.52;;;;;;;19.45;54.61;102200.72;5116576;28;20035;-58
2022/06/13 10:00:25;;;;;;;6.95;1.95;;;;;;;19.72;55.08;102186.69;5116639;28;20362;-56
2022/06/13 10:03:19;;;;;;;7.03;3.50;;;;;;;19.99;54.11;102184.94;5116637;28;20023;-58
2022/06/13 10:05:57;;;;;;;5.75;3.05;;;;;;;20.28;51.87;102185.78;5116361;28;20023;-57
2022/06/13 10:08:48;;;;;;;8.50;3.25;;;;;;;20.20;52.62;102199.34;5116575;28;20023;-58
2022/06/13 10:11:28;;;;;;;4.90;1.90;;;;;;;20.19;50.80;102194.09;5115841;28;20038;-62
2022/06/13 10:14:28;;;;;;;6.00;1.90;;;;;;;20.55;51.24;102198.25;5116199;28;20031;-59
2022/06/13 10:17:05;;;;;;;3.97;1.58;;;;;;;20.56;48.23;102188.47;5116447;28;20100;-59
2022/06/13 10:19:58;;;;;;;6.60;2.20;;;;;;;20.36;49.88;102205.03;5116350;28;20032;-59
2022/06/13 10:23:00;;;;;;;6.95;2.20;;;;;;;20.06;51.82;102196.25;5100098;28;20043;-60
2022/06/13 10:25:39;;;;;;;6.63;2.60;;;;;;;20.03;51.34;102193.69;5116048;28;20020;-58
2022/06/13 10:28:13;;;;;;;7.80;4.35;;;;;;;19.94;50.95;102204.59;5116045;28;20062;-59
2022/06/13 10:30:51;;;;;;;9.30;5.40;;;;;;;20.01;48.61;102190.22;5115820;28;20027;-59
2022/06/13 10:33:17;;;;;;;5.90;3.08;;;;;;;20.04;49.72;102200.75;5116087;28;20034;-60
2022/06/13 10:35:53;;;;;;;5.65;2.75;;;;;;;20.05;49.48;102197.19;5116328;28;20054;-59
2022/06/13 10:38:38;;;;;;;4.65;1.77;;;;;;;20.35;49.83;102198.84;5116156;28;20031;-59
2022/06/13 10:41:04;;;;;;;3.97;1.80;;;;;;;20.71;49.30;102198.59;5115498;28;20426;-58
2022/06/13 10:43:31;;;;;;;6.35;3.15;;;;;;;20.86;47.86;102179.44;5116361;28;20042;-58
2022/06/13 10:45:58;;;;;;;7.57;2.50;;;;;;;20.60;48.85;102204.28;5116082;28;20434;-58
2022/06/13 10:48:31;;;;;;;5.28;1.92;;;;;;;20.30;47.28;102194.59;5115981;28;20028;-58
2022/06/13 10:51:02;;;;;;;5.32;1.70;;;;;;;20.46;48.93;102194.06;5115820;28;20066;-59
2022/06/13 10:53:33;;;;;;;;;;;;;;;20.82;50.15;102207.06;5116398;28;20039;-59
2022/06/13 10:56:03;;;;;;;2.72;1.38;;;;;;;20.62;50.69;102204.19;5115728;28;20313;-58
2022/06/13 10:58:36;;;;;;;6.20;1.95;;;;;;;20.49;48.48;102201.09;5116014;28;20031;-58
2022/06/13 11:01:08;;;;;;;5.13;2.72;;;;;;;20.42;48.00;102200.44;5115681;28;20036;-59
2022/06/13 11:03:34;;;;;;;5.00;2.53;;;;;;;20.32;47.49;102204.28;5115233;28;20043;-59
2022/06/13 11:06:07;;;;;;;7.50;2.70;;;;;;;20.27;49.26;102206.19;5115773;28;20498;-58
2022/06/13 11:08:33;;;;;;;5.50;1.75;;;;;;;20.08;47.86;102207.72;5115530;28;20027;-58
2022/06/13 11:11:02;;;;;;;3.30;1.50;;;;;;;19.92;47.41;102201.97;5115566;28;20039;-58
2022/06/13 11:13:32;;;;;;;5.13;1.42;;;;;;;19.62;47.66;102211.75;5115444;28;20031;-59
2022/06/13 11:24:53;;;;;;;4.35;1.38;;;;;;;20.27;47.43;102205.31;5115070;28;20458;-61
2022/06/13 11:27:41;;;;;;;5.97;1.40;;;;;;;20.32;45.19;102208.72;5115259;28;20143;-60
2022/06/13 11:30:31;;;;;;;3.63;1.35;;;;;;;20.25;46.62;102217.81;5115277;28;20035;-62
2022/06/13 11:33:15;;;;;;;6.80;1.20;;;;;;;20.39;45.75;102213.84;5115217;28;20469;-59
2022/06/13 11:35:49;;;;;;;3.38;1.10;;;;;;;20.63;46.10;102209.47;5115372;28;20023;-58
2022/06/13 11:38:19;;;;;;;3.70;1.40;;;;;;;21.02;44.54;102191.28;5115161;28;20028;-57
2022/06/13 11:40:48;;;;;;;5.43;1.20;;;;;;;21.30;40.93;102201.00;5115249;28;20323;-60
2022/06/13 11:43:23;;;;;;;3.83;1.00;;;;;;;21.58;43.29;102199.03;5115279;28;20071;-59
2022/06/13 11:45:57;;;;;;;5.32;1.55;;;;;;;21.89;43.50;102201.38;5115123;28;20032;-59
2022/06/13 11:48:23;;;;;;;6.43;1.40;;;;;;;21.86;42.75;102206.81;5115196;28;20031;-59
2022/06/13 11:50:53;;;;;;;4.28;1.23;;;;;;;21.65;44.34;102197.84;5115110;28;20038;-57
2022/06/13 11:53:36;;;;;;;5.82;1.30;;;;;;;21.31;43.84;102200.03;5115331;28;20046;-58
2022/06/13 11:56:11;;;;;;;4.43;1.60;;;;;;;21.17;44.81;102201.38;5115180;28;20058;-58
2022/06/13 11:58:41;;;;;;;4.32;1.38;;;;;;;20.90;44.54;102207.69;5115030;28;20028;-60
2022/06/13 12:01:32;;;;;;;3.90;1.27;;;;;;;20.75;45.48;102214.41;5115073;28;20039;-60
2022/06/13 12:04:03;;;;;;;6.00;1.35;;;;;;;20.76;42.99;102213.50;5115226;28;20035;-59
2022/06/13 12:06:40;;;;;;;3.05;1.05;;;;;;;20.76;44.85;102216.16;5115830;28;20036;-59
2022/06/13 12:09:15;;;;;;;2.90;1.08;;;;;;;20.94;43.75;102214.66;5118718;28;20063;-59
2022/06/13 12:11:53;;;;;;;4.55;1.00;;;;;;;21.05;42.53;102215.13;5118756;28;20468;-58